createdAt,value
2023-02-22T00:02:10.606Z,2.00
2023-02-22T00:04:39.644Z,2.60
2023-02-22T00:07:07.579Z,2.65
2023-02-22T00:09:34.818Z,2.53
2023-02-22T00:12:02.200Z,2.55
2023-02-22T00:14:29.012Z,2.30
2023-02-22T00:16:59.607Z,2.40
2023-02-22T00:19:28.081Z,2.50
2023-02-22T00:21:55.283Z,2.70
2023-02-22T00:24:24.837Z,2.50
2023-02-22T00:26:55.724Z,2.60
2023-02-22T00:29:24.008Z,2.40
2023-02-22T00:31:50.906Z,2.25
2023-02-22T00:34:18.243Z,2.40
2023-02-22T00:36:49.356Z,2.65
2023-02-22T00:39:16.424Z,2.40
2023-02-22T00:41:43.623Z,2.47
2023-02-22T00:44:10.990Z,2.60
2023-02-22T00:46:39.416Z,2.35
2023-02-22T00:49:06.702Z,2.55
2023-02-22T00:51:33.910Z,2.80
2023-02-22T00:54:01.037Z,2.88
2023-02-22T00:56:28.096Z,3.20
2023-02-22T00:58:54.931Z,2.88
2023-02-22T01:01:22.347Z,2.92
2023-02-22T01:03:49.161Z,2.60
2023-02-22T01:06:16.578Z,3.53
2023-02-22T01:08:47.398Z,3.20
2023-02-22T01:11:15.900Z,3.38
2023-02-22T01:13:45.244Z,3.17
2023-02-22T01:16:12.063Z,2.97
2023-02-22T01:18:38.940Z,3.10
2023-02-22T01:21:06.589Z,3.00
2023-02-22T01:23:33.408Z,3.00
2023-02-22T01:26:00.482Z,3.03
2023-02-22T01:28:29.475Z,3.22
2023-02-22T01:30:56.783Z,3.05
2023-02-22T01:33:25.619Z,3.17
2023-02-22T01:35:53.108Z,3.33
2023-02-22T01:38:20.140Z,3.15
2023-02-22T01:40:49.973Z,3.38
2023-02-22T01:43:27.093Z,2.72
2023-02-22T01:45:55.870Z,2.58
2023-02-22T01:48:30.832Z,2.80
2023-02-22T01:51:02.198Z,2.95
2023-02-22T01:53:36.156Z,3.50
2023-02-22T01:56:04.113Z,2.70
2023-02-22T01:58:34.761Z,2.00
2023-02-22T02:01:01.601Z,2.40
2023-02-22T02:03:33.165Z,2.20
2023-02-22T02:06:03.934Z,2.50
2023-02-22T02:08:54.998Z,2.70
2023-02-22T02:11:25.628Z,2.22
2023-02-22T02:13:55.302Z,2.58
2023-02-22T02:16:39.010Z,2.50
2023-02-22T02:19:36.209Z,2.80
2023-02-22T02:22:19.666Z,2.50
2023-02-22T02:25:24.161Z,2.05
2023-02-22T02:28:27.295Z,2.30
2023-02-22T02:31:12.747Z,2.25
2023-02-22T02:33:53.160Z,2.50
2023-02-22T02:36:32.644Z,1.98
2023-02-22T02:39:36.920Z,2.35
2023-02-22T02:42:10.214Z,2.45
2023-02-22T02:44:51.571Z,2.20
2023-02-22T02:47:24.048Z,2.30
2023-02-22T02:50:09.744Z,2.53
2023-02-22T02:52:39.384Z,2.60
2023-02-22T02:55:08.364Z,2.47
2023-02-22T02:57:35.126Z,2.30
2023-02-22T03:00:01.953Z,2.42
2023-02-22T03:02:50.373Z,2.22
2023-02-22T03:05:35.873Z,2.30
2023-02-22T03:08:15.914Z,2.20
2023-02-22T03:10:45.745Z,2.33
2023-02-22T03:13:31.086Z,2.50
2023-02-22T03:16:13.047Z,2.83
2023-02-22T03:18:55.196Z,2.00
2023-02-22T03:21:33.927Z,2.10
2023-02-22T03:24:13.984Z,2.08
2023-02-22T03:26:49.621Z,2.10
2023-02-22T03:29:19.842Z,2.20
2023-02-22T03:32:01.369Z,2.15
2023-02-22T03:34:42.502Z,2.30
2023-02-22T03:37:22.144Z,2.58
2023-02-22T03:39:54.137Z,2.47
2023-02-22T03:42:33.043Z,2.33
2023-02-22T03:45:05.097Z,2.45
2023-02-22T03:47:41.056Z,2.25
2023-02-22T03:50:21.473Z,2.05
2023-02-22T03:52:48.870Z,2.13
2023-02-22T03:55:23.758Z,2.30
2023-02-22T03:57:54.944Z,2.08
2023-02-22T04:00:25.329Z,2.50
2023-02-22T04:02:52.317Z,2.58
2023-02-22T04:05:21.323Z,2.67
2023-02-22T04:07:48.170Z,2.30
2023-02-22T04:10:16.468Z,2.42
2023-02-22T04:12:43.959Z,2.72
2023-02-22T04:15:20.009Z,2.63
2023-02-22T04:17:48.122Z,2.50
2023-02-22T04:20:19.787Z,2.55
2023-02-22T04:22:56.112Z,2.60
2023-02-22T04:25:24.104Z,2.30
2023-02-22T04:27:52.525Z,2.33
2023-02-22T04:30:24.607Z,3.00
2023-02-22T04:32:51.594Z,2.30
2023-02-22T04:35:21.200Z,2.67
2023-02-22T04:37:48.011Z,2.40
2023-02-22T04:40:16.947Z,2.58
2023-02-22T04:42:44.204Z,2.80
2023-02-22T04:45:11.582Z,2.55
2023-02-22T04:47:39.483Z,2.83
2023-02-22T04:50:09.299Z,2.33
2023-02-22T04:52:36.132Z,2.58
2023-02-22T04:55:04.773Z,2.58
2023-02-22T04:57:32.310Z,2.05
2023-02-22T04:59:59.301Z,1.88
2023-02-22T05:02:26.315Z,2.08
2023-02-22T05:04:53.421Z,2.38
2023-02-22T05:07:20.231Z,2.00
2023-02-22T05:09:46.996Z,2.10
2023-02-22T05:12:13.796Z,2.70
2023-02-22T05:14:41.550Z,2.58
2023-02-22T05:17:08.625Z,2.80
2023-02-22T05:19:35.608Z,3.20
2023-02-22T05:22:02.624Z,3.03
2023-02-22T05:24:29.509Z,3.15
2023-02-22T05:26:56.255Z,3.55
2023-02-22T05:29:23.037Z,3.80
2023-02-22T05:31:49.989Z,3.47
2023-02-22T05:34:17.420Z,3.13
2023-02-22T05:36:44.517Z,2.45
2023-02-22T05:39:12.241Z,2.95
2023-02-22T05:41:39.163Z,3.00
2023-02-22T05:44:06.172Z,2.97
2023-02-22T05:46:33.089Z,2.33
2023-02-22T05:49:00.041Z,2.40
2023-02-22T05:51:27.245Z,2.60
2023-02-22T05:53:54.327Z,3.00
2023-02-22T05:56:23.458Z,3.30
2023-02-22T05:58:50.816Z,3.60
2023-02-22T06:01:18.388Z,2.47
2023-02-22T06:03:50.760Z,2.50
2023-02-22T06:06:20.058Z,2.38
2023-02-22T06:08:48.183Z,2.50
2023-02-22T06:11:15.932Z,2.55
2023-02-22T06:13:42.987Z,2.25
2023-02-22T06:16:10.012Z,2.35
2023-02-22T06:18:37.131Z,2.53
2023-02-22T06:21:04.425Z,2.22
2023-02-22T06:23:31.450Z,2.45
2023-02-22T06:25:58.475Z,2.10
2023-02-22T06:28:26.380Z,2.42
2023-02-22T06:30:53.391Z,3.63
2023-02-22T06:33:20.290Z,3.58
2023-02-22T06:35:47.497Z,3.47
2023-02-22T06:38:22.666Z,3.60
2023-02-22T06:40:49.704Z,3.20
2023-02-22T06:43:16.856Z,3.13
2023-02-22T06:45:44.037Z,3.20
2023-02-22T06:48:10.845Z,3.83
2023-02-22T06:50:37.893Z,3.28
2023-02-22T06:53:04.915Z,3.15
2023-02-22T06:55:34.181Z,3.60
2023-02-22T06:58:02.917Z,2.70
2023-02-22T07:00:32.232Z,2.78
2023-02-22T07:02:59.986Z,2.80
2023-02-22T07:05:27.709Z,3.25
2023-02-22T07:08:01.658Z,3.70
2023-02-22T07:10:32.295Z,3.90
2023-02-22T07:12:59.457Z,4.07
2023-02-22T07:15:28.188Z,3.47
2023-02-22T07:17:55.502Z,3.72
2023-02-22T07:20:24.631Z,3.67
2023-02-22T07:22:51.865Z,4.15
2023-02-22T07:25:19.513Z,4.32
2023-02-22T07:27:47.306Z,4.32
2023-02-22T07:30:30.754Z,4.53
2023-02-22T07:32:59.602Z,4.10
2023-02-22T07:35:38.115Z,3.90
2023-02-22T07:38:10.371Z,3.40
2023-02-22T07:40:38.039Z,3.53
2023-02-22T07:43:17.292Z,3.08
2023-02-22T07:45:45.267Z,3.00
2023-02-22T07:48:13.992Z,3.03
2023-02-22T07:50:41.468Z,3.60
2023-02-22T07:53:13.890Z,3.67
2023-02-22T07:55:40.735Z,2.90
2023-02-22T07:58:09.001Z,3.33
2023-02-22T08:00:39.275Z,3.17
2023-02-22T08:03:08.817Z,3.92
2023-02-22T08:05:37.588Z,3.90
2023-02-22T08:08:06.168Z,4.63
2023-02-22T08:10:35.156Z,4.25
2023-02-22T08:13:03.195Z,4.20
2023-02-22T08:15:34.498Z,4.90
2023-02-22T08:18:02.413Z,3.88
2023-02-22T08:20:30.240Z,4.35
2023-02-22T08:22:58.197Z,4.03
2023-02-22T08:25:27.248Z,4.43
2023-02-22T08:27:58.872Z,4.15
2023-02-22T08:30:26.020Z,4.53
2023-02-22T08:32:53.095Z,4.43
2023-02-22T08:35:20.999Z,4.72
2023-02-22T08:37:50.051Z,4.47
2023-02-22T08:40:19.518Z,4.32
2023-02-22T08:42:46.283Z,4.13
2023-02-22T08:45:13.828Z,4.43
2023-02-22T08:47:41.386Z,4.88
2023-02-22T08:50:09.953Z,4.80
2023-02-22T08:52:36.762Z,4.32
2023-02-22T08:55:03.719Z,4.93
2023-02-22T08:57:31.825Z,5.05
2023-02-22T08:59:58.719Z,4.53
2023-02-22T09:02:25.594Z,4.70
2023-02-22T09:04:52.407Z,5.00
2023-02-22T09:07:19.183Z,4.53
2023-02-22T09:09:46.131Z,4.88
2023-02-22T09:12:12.949Z,5.60
2023-02-22T09:14:39.808Z,5.20
2023-02-22T09:17:06.687Z,5.50
2023-02-22T09:19:33.530Z,5.63
2023-02-22T09:22:00.581Z,5.45
2023-02-22T09:24:27.845Z,6.20
2023-02-22T09:26:54.747Z,5.65
2023-02-22T09:29:24.112Z,6.00
2023-02-22T09:31:52.810Z,6.18
2023-02-22T09:34:22.707Z,5.45
2023-02-22T09:36:50.405Z,5.60
2023-02-22T09:39:18.217Z,6.28
2023-02-22T09:41:57.833Z,6.53
2023-02-22T09:44:43.308Z,7.00
2023-02-22T09:47:18.308Z,7.03
2023-02-22T09:50:02.410Z,7.65
2023-02-22T09:52:37.048Z,7.68
2023-02-22T09:55:16.278Z,8.60
2023-02-22T09:57:44.073Z,8.70
2023-02-22T10:00:23.835Z,8.77
2023-02-22T10:03:16.343Z,9.02
2023-02-22T10:05:49.345Z,8.50
2023-02-22T10:08:19.040Z,6.88
2023-02-22T10:10:52.665Z,6.90
2023-02-22T10:13:28.965Z,6.77
2023-02-22T10:16:11.333Z,7.45
2023-02-22T10:19:01.374Z,7.93
2023-02-22T10:21:53.811Z,7.90
2023-02-22T10:24:22.968Z,7.68
2023-02-22T10:26:50.818Z,7.15
2023-02-22T10:29:19.039Z,6.70
2023-02-22T10:31:56.107Z,7.32
2023-02-22T10:34:26.066Z,6.07
2023-02-22T10:37:04.678Z,5.80
2023-02-22T10:39:38.195Z,6.88
2023-02-22T10:42:08.051Z,7.00
2023-02-22T10:44:39.247Z,7.18
2023-02-22T10:47:17.608Z,5.68
2023-02-22T10:49:50.219Z,7.07
2023-02-22T10:52:27.164Z,6.85
2023-02-22T10:55:13.692Z,7.10
2023-02-22T10:57:43.988Z,6.95
2023-02-22T11:00:19.916Z,7.22
2023-02-22T11:03:01.800Z,7.03
2023-02-22T11:05:38.651Z,7.18
2023-02-22T11:08:26.172Z,6.80
2023-02-22T11:11:00.213Z,7.00
2023-02-22T11:13:38.662Z,7.10
2023-02-22T11:16:28.474Z,6.45
2023-02-22T11:19:07.041Z,6.97
2023-02-22T11:21:33.997Z,6.13
2023-02-22T11:24:08.628Z,6.90
2023-02-22T11:26:45.846Z,6.25
2023-02-22T11:29:32.730Z,6.78
2023-02-22T11:32:21.111Z,7.00
2023-02-22T11:35:00.208Z,6.70
2023-02-22T11:37:38.707Z,6.05
2023-02-22T11:40:22.145Z,7.38
2023-02-22T11:43:16.744Z,7.43
2023-02-22T11:46:12.644Z,6.20
2023-02-22T11:48:44.954Z,6.90
2023-02-22T11:51:28.674Z,6.78
2023-02-22T11:53:58.877Z,6.53
2023-02-22T11:56:37.724Z,6.53
2023-02-22T11:59:11.544Z,6.63
2023-02-22T12:01:57.443Z,6.68
2023-02-22T12:04:51.067Z,5.50
2023-02-22T12:07:30.017Z,6.47
2023-02-22T12:10:29.434Z,6.60
2023-02-22T12:13:03.777Z,6.82
2023-02-22T12:15:46.226Z,7.00
2023-02-22T12:18:35.005Z,6.68
2023-02-22T12:21:07.706Z,5.88
2023-02-22T12:23:45.003Z,5.95
2023-02-22T12:26:17.102Z,6.47
2023-02-22T12:28:51.517Z,5.53
2023-02-22T12:31:46.241Z,6.30
2023-02-22T12:34:33.302Z,5.82
2023-02-22T12:37:16.211Z,5.25
2023-02-22T12:40:06.361Z,5.32
2023-02-22T12:42:58.525Z,5.55
2023-02-22T12:45:34.622Z,5.90
2023-02-22T12:48:18.338Z,6.00
2023-02-22T12:50:49.305Z,6.25
2023-02-22T12:53:21.994Z,6.07
2023-02-22T12:55:56.685Z,6.85
2023-02-22T12:58:54.109Z,7.47
2023-02-22T13:01:24.931Z,6.28
2023-02-22T13:03:55.824Z,6.32
2023-02-22T13:06:47.023Z,7.22
2023-02-22T13:09:51.151Z,6.80
2023-02-22T13:12:17.973Z,6.38
2023-02-22T13:15:00.349Z,7.38
2023-02-22T13:17:33.373Z,6.30
2023-02-22T13:20:18.432Z,6.35
2023-02-22T13:23:12.318Z,5.65
2023-02-22T13:25:43.678Z,6.55
2023-02-22T13:28:21.018Z,6.88
2023-02-22T13:31:36.000Z,6.90
2023-02-22T13:34:13.193Z,6.75
2023-02-22T13:37:07.130Z,7.50
2023-02-22T13:39:45.968Z,6.88
2023-02-22T13:42:34.015Z,7.50
2023-02-22T13:45:04.132Z,7.68
2023-02-22T13:47:34.100Z,7.78
2023-02-22T13:50:16.286Z,7.75
2023-02-22T13:52:44.282Z,6.72
2023-02-22T13:55:22.302Z,6.60
2023-02-22T13:57:51.640Z,6.90
2023-02-22T14:00:23.055Z,6.60
2023-02-22T14:03:08.232Z,6.82
2023-02-22T14:05:36.395Z,6.72
2023-02-22T14:08:03.712Z,5.60
2023-02-22T14:11:00.771Z,6.15
2023-02-22T14:13:29.235Z,6.05
2023-02-22T14:16:02.588Z,6.28
2023-02-22T14:18:30.872Z,6.38
2023-02-22T14:21:11.714Z,5.95
2023-02-22T14:23:41.072Z,5.82
2023-02-22T14:26:16.952Z,5.78
2023-02-22T14:28:54.392Z,5.93
2023-02-22T14:31:36.930Z,6.60
2023-02-22T14:34:11.576Z,5.97
2023-02-22T14:37:05.194Z,5.82
2023-02-22T14:39:38.326Z,6.55
2023-02-22T14:42:27.198Z,6.20
2023-02-22T14:44:57.258Z,6.07
2023-02-22T14:47:43.753Z,5.55
2023-02-22T14:50:23.621Z,6.30
2023-02-22T14:53:22.241Z,6.40
2023-02-22T14:55:56.448Z,5.63
2023-02-22T14:58:45.988Z,6.18
2023-02-22T15:01:47.453Z,6.00
2023-02-22T15:04:28.863Z,5.22
2023-02-22T15:06:58.139Z,5.78
2023-02-22T15:09:34.790Z,5.80
2023-02-22T15:12:05.025Z,5.65
2023-02-22T15:14:38.904Z,5.43
2023-02-22T15:17:24.985Z,5.22
2023-02-22T15:19:53.112Z,5.93
2023-02-22T15:22:22.156Z,6.15
2023-02-22T15:25:08.139Z,6.18
2023-02-22T15:27:37.274Z,5.80
2023-02-22T15:30:26.641Z,6.13
2023-02-22T15:33:04.187Z,6.20
2023-02-22T15:35:33.859Z,5.43
2023-02-22T15:38:03.720Z,6.00
2023-02-22T15:40:33.150Z,5.95
2023-02-22T15:43:03.264Z,6.05
2023-02-22T15:45:32.397Z,5.70
2023-02-22T15:47:59.815Z,6.78
2023-02-22T15:50:29.178Z,6.53
2023-02-22T15:52:59.057Z,6.82
2023-02-22T15:55:36.239Z,6.85
2023-02-22T15:58:22.284Z,6.20
2023-02-22T16:01:07.951Z,6.32
2023-02-22T16:03:47.679Z,6.20
2023-02-22T16:06:37.940Z,6.53
2023-02-22T16:09:15.258Z,6.00
2023-02-22T16:11:44.503Z,5.65
2023-02-22T16:14:30.721Z,5.97
2023-02-22T16:17:29.596Z,6.28
2023-02-22T16:20:21.387Z,6.70
2023-02-22T16:22:49.746Z,6.85
2023-02-22T16:25:19.701Z,7.10
2023-02-22T16:27:52.744Z,6.88
2023-02-22T16:30:25.919Z,6.40
2023-02-22T16:32:55.325Z,5.82
2023-02-22T16:35:28.374Z,6.25
2023-02-22T16:37:58.670Z,6.65
2023-02-22T16:40:35.811Z,7.43
2023-02-22T16:43:06.122Z,6.85
2023-02-22T16:45:33.149Z,8.27
2023-02-22T16:48:00.743Z,7.13
2023-02-22T16:50:27.559Z,5.28
2023-02-22T16:52:58.605Z,6.38
2023-02-22T16:55:26.166Z,5.93
2023-02-22T16:57:56.863Z,5.80
2023-02-22T17:00:31.401Z,6.50
2023-02-22T17:03:02.738Z,6.07
2023-02-22T17:05:31.167Z,4.82
2023-02-22T17:07:58.560Z,5.28
2023-02-22T17:10:26.262Z,6.13
2023-02-22T17:12:53.582Z,5.07
2023-02-22T17:15:29.959Z,4.97
2023-02-22T17:17:57.263Z,4.40
2023-02-22T17:20:30.484Z,4.32
2023-02-22T17:23:00.957Z,4.05
2023-02-22T17:25:35.270Z,3.80
2023-02-22T17:28:02.327Z,5.53
2023-02-22T17:30:31.244Z,5.13
2023-02-22T17:33:03.856Z,6.20
2023-02-22T17:35:37.257Z,5.80
2023-02-22T17:38:06.302Z,4.78
2023-02-22T17:40:35.194Z,5.00
2023-02-22T17:43:02.558Z,6.82
2023-02-22T17:45:30.547Z,9.10
2023-02-22T17:47:59.160Z,12.48
2023-02-22T17:50:27.301Z,13.85
2023-02-22T17:52:54.636Z,11.90
2023-02-22T17:55:22.213Z,8.82
2023-02-22T17:57:58.290Z,6.90
2023-02-22T18:00:33.157Z,5.72
2023-02-22T18:03:06.804Z,5.55
2023-02-22T18:05:38.843Z,4.73
2023-02-22T18:08:05.761Z,6.22
2023-02-22T18:10:32.647Z,6.13
2023-02-22T18:13:01.940Z,5.63
2023-02-22T18:15:29.213Z,4.57
2023-02-22T18:17:56.617Z,3.92
2023-02-22T18:20:31.099Z,5.03
2023-02-22T18:22:58.831Z,5.70
2023-02-22T18:25:27.173Z,4.93
2023-02-22T18:27:55.078Z,5.90
2023-02-22T18:30:22.113Z,4.63
2023-02-22T18:32:49.073Z,4.63
2023-02-22T18:35:15.948Z,4.57
2023-02-22T18:37:44.414Z,5.00
2023-02-22T18:40:11.405Z,4.72
2023-02-22T18:42:39.523Z,4.40
2023-02-22T18:45:08.029Z,4.90
2023-02-22T18:47:40.704Z,6.47
2023-02-22T18:50:08.810Z,6.97
2023-02-22T18:52:44.789Z,8.02
2023-02-22T18:55:29.857Z,7.85
2023-02-22T18:57:57.014Z,7.72
2023-02-22T19:00:28.987Z,6.70
2023-02-22T19:02:57.847Z,7.55
2023-02-22T19:05:25.167Z,6.30
2023-02-22T19:07:52.023Z,5.90
2023-02-22T19:10:22.304Z,7.75
2023-02-22T19:12:49.473Z,8.48
2023-02-22T19:15:16.757Z,7.95
2023-02-22T19:17:43.751Z,8.25
2023-02-22T19:20:11.096Z,8.13
2023-02-22T19:25:10.268Z,8.05
2023-02-22T19:27:37.596Z,6.78
2023-02-22T19:30:04.913Z,7.93
2023-02-22T19:32:33.602Z,8.45
2023-02-22T19:35:06.980Z,8.75
2023-02-22T19:37:35.753Z,8.02
2023-02-22T19:40:07.332Z,6.85
2023-02-22T19:42:34.914Z,7.88
2023-02-22T19:45:02.003Z,7.85
2023-02-22T19:47:29.137Z,8.00
2023-02-22T19:49:59.687Z,7.93
2023-02-22T19:52:29.024Z,8.50
2023-02-22T19:54:56.179Z,7.28
2023-02-22T19:57:24.350Z,6.28
2023-02-22T19:59:51.387Z,6.60
2023-02-22T20:02:18.361Z,6.60
2023-02-22T20:04:45.339Z,6.63
2023-02-22T20:07:12.195Z,6.70
2023-02-22T20:09:40.292Z,6.32
2023-02-22T20:12:07.815Z,6.57
2023-02-22T20:14:35.220Z,6.70
2023-02-22T20:17:02.514Z,7.55
2023-02-22T20:19:29.885Z,9.43
2023-02-22T20:21:57.250Z,9.80
2023-02-22T20:24:25.173Z,10.63
2023-02-22T20:26:55.841Z,11.90
2023-02-22T20:29:29.478Z,11.02
2023-02-22T20:32:01.133Z,11.40
2023-02-22T20:34:33.246Z,11.32
2023-02-22T20:37:00.868Z,11.77
2023-02-22T20:39:29.399Z,11.60
2023-02-22T20:42:00.318Z,12.52
2023-02-22T20:44:27.264Z,11.27
2023-02-22T20:46:54.176Z,11.75
2023-02-22T20:49:21.542Z,12.65
2023-02-22T20:51:48.974Z,12.80
2023-02-22T20:54:16.943Z,11.45
2023-02-22T20:56:45.690Z,11.07
2023-02-22T20:59:14.748Z,10.68
2023-02-22T21:01:42.344Z,11.15
2023-02-22T21:04:11.149Z,11.82
2023-02-22T21:06:39.470Z,12.10
2023-02-22T21:09:10.892Z,11.98
2023-02-22T21:11:39.018Z,11.95
2023-02-22T21:14:06.271Z,12.55
2023-02-22T21:16:35.749Z,11.75
2023-02-22T21:19:05.920Z,12.35
2023-02-22T21:21:32.903Z,12.07
2023-02-22T21:24:01.796Z,13.65
2023-02-22T21:26:32.317Z,12.88
2023-02-22T21:29:01.060Z,10.70
2023-02-22T21:31:28.607Z,11.60
2023-02-22T21:33:57.432Z,12.43
2023-02-22T21:36:25.703Z,13.15
2023-02-22T21:39:09.480Z,13.02
2023-02-22T21:41:39.156Z,13.30
2023-02-22T21:44:07.302Z,13.73
2023-02-22T21:46:34.170Z,12.48
2023-02-22T21:49:01.163Z,12.15
2023-02-22T21:51:34.181Z,13.32
2023-02-22T21:54:03.494Z,13.77
2023-02-22T21:56:34.275Z,13.65
2023-02-22T21:59:06.578Z,13.95
2023-02-22T22:01:36.567Z,13.60
2023-02-22T22:04:04.757Z,14.23
2023-02-22T22:06:34.514Z,15.35
2023-02-22T22:09:02.560Z,16.05
2023-02-22T22:11:30.610Z,18.52
2023-02-22T22:13:58.941Z,18.02
2023-02-22T22:16:29.753Z,16.65
2023-02-22T22:18:56.912Z,15.43
2023-02-22T22:21:24.444Z,13.93
2023-02-22T22:23:54.455Z,15.40
2023-02-22T22:26:24.630Z,15.00
2023-02-22T22:28:57.546Z,14.93
2023-02-22T22:31:28.266Z,14.73
2023-02-22T22:33:56.744Z,13.90
2023-02-22T22:36:26.609Z,13.98
2023-02-22T22:38:57.229Z,13.98
2023-02-22T22:41:25.043Z,14.27
2023-02-22T22:43:54.068Z,13.95
2023-02-22T22:46:21.549Z,13.88
2023-02-22T22:48:48.654Z,14.13
2023-02-22T22:51:19.810Z,15.25
2023-02-22T22:53:49.231Z,13.52
2023-02-22T22:56:25.944Z,14.35
2023-02-22T22:58:54.969Z,14.23
2023-02-22T23:01:26.977Z,14.73
2023-02-22T23:04:01.751Z,14.00
2023-02-22T23:06:35.663Z,13.38
2023-02-22T23:09:18.540Z,14.10
2023-02-22T23:11:53.210Z,14.05
2023-02-22T23:14:23.342Z,13.30
2023-02-22T23:16:52.682Z,14.40
2023-02-22T23:19:19.877Z,14.82
2023-02-22T23:21:47.833Z,14.18
2023-02-22T23:24:15.858Z,15.00
2023-02-22T23:26:48.669Z,13.80
2023-02-22T23:29:18.787Z,15.20
2023-02-22T23:31:48.187Z,14.35
2023-02-22T23:34:21.227Z,13.80
2023-02-22T23:36:49.362Z,14.10
2023-02-22T23:39:21.919Z,13.68
2023-02-22T23:41:53.227Z,13.98
2023-02-22T23:44:21.425Z,14.15
2023-02-22T23:46:49.856Z,14.38
2023-02-22T23:49:20.718Z,14.43
2023-02-22T23:51:48.500Z,14.13
2023-02-22T23:54:19.252Z,14.50
2023-02-22T23:57:12.814Z,13.73
2023-02-22T23:59:42.320Z,14.27
